sensor_id;sensor_type;location;lat;lon;timestamp;temperature;humidity
43999;DHT22;51319;52.162;5.302;2024-03-02T00:00:21;9.00;82.60
43999;DHT22;51319;52.162;5.302;2024-03-02T00:02:49;8.90;82.70
43999;DHT22;51319;52.162;5.302;2024-03-02T00:05:21;8.90;83.00
43999;DHT22;51319;52.162;5.302;2024-03-02T00:07:56;9.00;83.20
43999;DHT22;51319;52.162;5.302;2024-03-02T00:10:36;8.90;83.20
43999;DHT22;51319;52.162;5.302;2024-03-02T00:13:07;9.00;83.20
43999;DHT22;51319;52.162;5.302;2024-03-02T00:16:02;9.00;83.30
43999;DHT22;51319;52.162;5.302;2024-03-02T00:18:33;9.00;83.20
43999;DHT22;51319;52.162;5.302;2024-03-02T00:21:00;9.00;83.30
43999;DHT22;51319;52.162;5.302;2024-03-02T00:23:30;9.00;83.20
43999;DHT22;51319;52.162;5.302;2024-03-02T00:25:58;9.00;83.40
43999;DHT22;51319;52.162;5.302;2024-03-02T00:28:32;9.00;83.50
43999;DHT22;51319;52.162;5.302;2024-03-02T00:36:06;9.10;83.20
43999;DHT22;51319;52.162;5.302;2024-03-02T00:38:34;9.10;83.50
43999;DHT22;51319;52.162;5.302;2024-03-02T00:41:05;9.10;83.90
43999;DHT22;51319;52.162;5.302;2024-03-02T00:43:50;9.00;84.50
43999;DHT22;51319;52.162;5.302;2024-03-02T00:46:20;8.90;85.30
43999;DHT22;51319;52.162;5.302;2024-03-02T00:48:57;8.80;85.80
43999;DHT22;51319;52.162;5.302;2024-03-02T00:51:27;8.70;86.50
43999;DHT22;51319;52.162;5.302;2024-03-02T00:53:57;8.60;86.90
43999;DHT22;51319;52.162;5.302;2024-03-02T00:56:25;8.60;87.60
43999;DHT22;51319;52.162;5.302;2024-03-02T00:58:52;8.50;88.20
43999;DHT22;51319;52.162;5.302;2024-03-02T01:01:20;8.50;88.90
43999;DHT22;51319;52.162;5.302;2024-03-02T01:03:48;8.40;89.30
43999;DHT22;51319;52.162;5.302;2024-03-02T01:06:16;8.30;89.70
43999;DHT22;51319;52.162;5.302;2024-03-02T01:08:44;8.20;90.00
43999;DHT22;51319;52.162;5.302;2024-03-02T01:11:11;8.20;90.30
43999;DHT22;51319;52.162;5.302;2024-03-02T01:13:38;8.10;90.70
43999;DHT22;51319;52.162;5.302;2024-03-02T01:16:05;8.00;91.00
43999;DHT22;51319;52.162;5.302;2024-03-02T01:18:32;8.00;91.40
43999;DHT22;51319;52.162;5.302;2024-03-02T01:20:59;7.90;91.70
43999;DHT22;51319;52.162;5.302;2024-03-02T01:23:26;7.80;92.10
43999;DHT22;51319;52.162;5.302;2024-03-02T01:25:53;7.80;92.30
43999;DHT22;51319;52.162;5.302;2024-03-02T01:28:20;7.70;92.60
43999;DHT22;51319;52.162;5.302;2024-03-02T01:30:48;7.70;92.80
43999;DHT22;51319;52.162;5.302;2024-03-02T01:33:16;7.70;93.00
43999;DHT22;51319;52.162;5.302;2024-03-02T01:35:44;7.70;93.20
43999;DHT22;51319;52.162;5.302;2024-03-02T01:38:11;7.60;93.40
43999;DHT22;51319;52.162;5.302;2024-03-02T01:40:38;7.60;93.50
43999;DHT22;51319;52.162;5.302;2024-03-02T01:43:06;7.60;93.70
43999;DHT22;51319;52.162;5.302;2024-03-02T01:45:35;7.60;93.80
43999;DHT22;51319;52.162;5.302;2024-03-02T01:48:05;7.60;93.90
43999;DHT22;51319;52.162;5.302;2024-03-02T01:50:34;7.60;94.00
43999;DHT22;51319;52.162;5.302;2024-03-02T01:53:01;7.50;94.10
43999;DHT22;51319;52.162;5.302;2024-03-02T01:55:31;7.50;94.20
43999;DHT22;51319;52.162;5.302;2024-03-02T01:58:00;7.50;94.30
43999;DHT22;51319;52.162;5.302;2024-03-02T02:00:27;7.50;94.40
43999;DHT22;51319;52.162;5.302;2024-03-02T02:02:55;7.50;94.50
43999;DHT22;51319;52.162;5.302;2024-03-02T02:05:22;7.50;94.70
43999;DHT22;51319;52.162;5.302;2024-03-02T02:07:49;7.40;94.70
43999;DHT22;51319;52.162;5.302;2024-03-02T02:10:16;7.40;94.80
43999;DHT22;51319;52.162;5.302;2024-03-02T02:12:43;7.30;95.00
43999;DHT22;51319;52.162;5.302;2024-03-02T02:15:29;7.30;95.30
43999;DHT22;51319;52.162;5.302;2024-03-02T02:17:58;7.20;95.50
43999;DHT22;51319;52.162;5.302;2024-03-02T02:20:26;7.20;95.70
43999;DHT22;51319;52.162;5.302;2024-03-02T02:23:03;7.20;95.90
43999;DHT22;51319;52.162;5.302;2024-03-02T02:25:32;7.10;96.10
43999;DHT22;51319;52.162;5.302;2024-03-02T02:27:59;7.10;96.40
43999;DHT22;51319;52.162;5.302;2024-03-02T02:30:29;7.00;96.60
43999;DHT22;51319;52.162;5.302;2024-03-02T02:32:58;7.00;96.90
43999;DHT22;51319;52.162;5.302;2024-03-02T02:35:25;7.00;97.20
43999;DHT22;51319;52.162;5.302;2024-03-02T02:37:54;6.90;97.50
43999;DHT22;51319;52.162;5.302;2024-03-02T02:40:21;6.90;97.80
43999;DHT22;51319;52.162;5.302;2024-03-02T02:42:49;6.90;98.10
43999;DHT22;51319;52.162;5.302;2024-03-02T02:45:16;6.90;98.20
43999;DHT22;51319;52.162;5.302;2024-03-02T02:47:44;6.90;98.50
43999;DHT22;51319;52.162;5.302;2024-03-02T02:50:12;6.90;98.80
43999;DHT22;51319;52.162;5.302;2024-03-02T02:52:40;6.90;99.20
43999;DHT22;51319;52.162;5.302;2024-03-02T02:55:10;6.80;99.40
43999;DHT22;51319;52.162;5.302;2024-03-02T02:57:40;6.80;99.60
43999;DHT22;51319;52.162;5.302;2024-03-02T03:00:09;6.90;99.90
43999;DHT22;51319;52.162;5.302;2024-03-02T03:02:41;6.90;99.90
43999;DHT22;51319;52.162;5.302;2024-03-02T03:05:09;6.80;99.90
43999;DHT22;51319;52.162;5.302;2024-03-02T03:07:37;6.80;99.90
43999;DHT22;51319;52.162;5.302;2024-03-02T03:10:07;6.80;99.90
43999;DHT22;51319;52.162;5.302;2024-03-02T03:12:35;6.80;99.90
43999;DHT22;51319;52.162;5.302;2024-03-02T03:15:02;6.70;99.90
43999;DHT22;51319;52.162;5.302;2024-03-02T03:17:31;6.70;99.90
43999;DHT22;51319;52.162;5.302;2024-03-02T03:19:58;6.70;99.90
43999;DHT22;51319;52.162;5.302;2024-03-02T03:22:26;6.70;99.90
43999;DHT22;51319;52.162;5.302;2024-03-02T03:24:53;6.70;99.90
43999;DHT22;51319;52.162;5.302;2024-03-02T03:27:20;6.70;99.90
43999;DHT22;51319;52.162;5.302;2024-03-02T03:29:47;6.70;99.90
43999;DHT22;51319;52.162;5.302;2024-03-02T03:32:14;6.70;99.90
43999;DHT22;51319;52.162;5.302;2024-03-02T03:34:41;6.60;99.90
43999;DHT22;51319;52.162;5.302;2024-03-02T03:37:08;6.60;99.90
43999;DHT22;51319;52.162;5.302;2024-03-02T03:39:35;6.60;99.90
43999;DHT22;51319;52.162;5.302;2024-03-02T03:42:03;6.60;99.90
43999;DHT22;51319;52.162;5.302;2024-03-02T03:44:30;6.60;99.90
43999;DHT22;51319;52.162;5.302;2024-03-02T03:46:57;6.70;99.90
43999;DHT22;51319;52.162;5.302;2024-03-02T03:49:24;6.70;99.90
43999;DHT22;51319;52.162;5.302;2024-03-02T03:51:51;6.70;99.90
43999;DHT22;51319;52.162;5.302;2024-03-02T03:54:19;6.70;99.90
43999;DHT22;51319;52.162;5.302;2024-03-02T03:56:49;6.70;99.90
43999;DHT22;51319;52.162;5.302;2024-03-02T03:59:16;6.70;99.90
43999;DHT22;51319;52.162;5.302;2024-03-02T04:01:43;6.80;99.90
43999;DHT22;51319;52.162;5.302;2024-03-02T04:04:10;6.80;99.90
43999;DHT22;51319;52.162;5.302;2024-03-02T04:06:37;6.80;99.90
43999;DHT22;51319;52.162;5.302;2024-03-02T04:09:04;6.90;99.90
43999;DHT22;51319;52.162;5.302;2024-03-02T04:11:31;6.80;99.90
43999;DHT22;51319;52.162;5.302;2024-03-02T04:13:58;6.90;99.90
43999;DHT22;51319;52.162;5.302;2024-03-02T04:16:25;6.90;99.90
43999;DHT22;51319;52.162;5.302;2024-03-02T04:18:52;6.90;99.90
43999;DHT22;51319;52.162;5.302;2024-03-02T04:21:19;6.90;99.90
43999;DHT22;51319;52.162;5.302;2024-03-02T04:23:47;6.90;99.90
43999;DHT22;51319;52.162;5.302;2024-03-02T04:26:14;7.00;99.90
43999;DHT22;51319;52.162;5.302;2024-03-02T04:28:42;7.00;99.90
43999;DHT22;51319;52.162;5.302;2024-03-02T04:31:09;7.00;99.90
43999;DHT22;51319;52.162;5.302;2024-03-02T04:33:36;7.00;99.90
43999;DHT22;51319;52.162;5.302;2024-03-02T04:36:03;7.10;99.90
43999;DHT22;51319;52.162;5.302;2024-03-02T04:38:30;7.10;99.90
43999;DHT22;51319;52.162;5.302;2024-03-02T04:40:58;7.10;99.90
43999;DHT22;51319;52.162;5.302;2024-03-02T04:43:25;7.00;99.80
43999;DHT22;51319;52.162;5.302;2024-03-02T04:45:52;7.10;99.80
43999;DHT22;51319;52.162;5.302;2024-03-02T04:48:19;7.10;99.90
43999;DHT22;51319;52.162;5.302;2024-03-02T04:50:46;7.00;99.90
43999;DHT22;51319;52.162;5.302;2024-03-02T04:53:13;7.00;99.90
43999;DHT22;51319;52.162;5.302;2024-03-02T04:55:40;7.00;99.90
43999;DHT22;51319;52.162;5.302;2024-03-02T04:58:07;6.90;99.80
43999;DHT22;51319;52.162;5.302;2024-03-02T05:00:35;6.70;99.90
43999;DHT22;51319;52.162;5.302;2024-03-02T05:03:03;6.60;99.90
43999;DHT22;51319;52.162;5.302;2024-03-02T05:05:29;6.50;99.90
43999;DHT22;51319;52.162;5.302;2024-03-02T05:07:57;6.40;99.90
43999;DHT22;51319;52.162;5.302;2024-03-02T05:10:24;6.30;99.90
43999;DHT22;51319;52.162;5.302;2024-03-02T05:12:51;6.20;99.90
43999;DHT22;51319;52.162;5.302;2024-03-02T05:15:26;6.20;99.90
43999;DHT22;51319;52.162;5.302;2024-03-02T05:17:54;6.20;99.90
43999;DHT22;51319;52.162;5.302;2024-03-02T05:20:23;6.20;99.90
43999;DHT22;51319;52.162;5.302;2024-03-02T05:22:50;6.20;99.90
43999;DHT22;51319;52.162;5.302;2024-03-02T05:25:17;6.30;99.90
43999;DHT22;51319;52.162;5.302;2024-03-02T05:27:44;6.30;99.90
43999;DHT22;51319;52.162;5.302;2024-03-02T05:30:11;6.30;99.90
43999;DHT22;51319;52.162;5.302;2024-03-02T05:32:38;6.20;99.90
43999;DHT22;51319;52.162;5.302;2024-03-02T05:35:06;6.20;99.90
43999;DHT22;51319;52.162;5.302;2024-03-02T05:37:33;6.10;99.90
43999;DHT22;51319;52.162;5.302;2024-03-02T05:40:00;6.10;99.90
43999;DHT22;51319;52.162;5.302;2024-03-02T05:42:28;6.10;99.90
43999;DHT22;51319;52.162;5.302;2024-03-02T05:44:55;6.00;99.90
43999;DHT22;51319;52.162;5.302;2024-03-02T05:47:22;5.90;99.90
43999;DHT22;51319;52.162;5.302;2024-03-02T05:49:49;5.90;99.90
43999;DHT22;51319;52.162;5.302;2024-03-02T05:52:16;5.90;99.90
43999;DHT22;51319;52.162;5.302;2024-03-02T05:54:43;5.80;99.90
43999;DHT22;51319;52.162;5.302;2024-03-02T05:57:10;5.80;99.90
43999;DHT22;51319;52.162;5.302;2024-03-02T05:59:44;5.80;99.90
43999;DHT22;51319;52.162;5.302;2024-03-02T06:02:13;5.90;99.90
43999;DHT22;51319;52.162;5.302;2024-03-02T06:04:40;6.00;99.90
43999;DHT22;51319;52.162;5.302;2024-03-02T06:07:07;6.10;99.90
43999;DHT22;51319;52.162;5.302;2024-03-02T06:09:34;6.20;99.90
43999;DHT22;51319;52.162;5.302;2024-03-02T06:12:03;6.20;99.90
43999;DHT22;51319;52.162;5.302;2024-03-02T06:14:30;6.30;99.90
43999;DHT22;51319;52.162;5.302;2024-03-02T06:16:58;6.40;99.90
43999;DHT22;51319;52.162;5.302;2024-03-02T06:19:26;6.50;99.80
43999;DHT22;51319;52.162;5.302;2024-03-02T06:21:54;6.50;99.60
43999;DHT22;51319;52.162;5.302;2024-03-02T06:24:21;6.50;99.30
43999;DHT22;51319;52.162;5.302;2024-03-02T06:26:48;6.60;99.10
43999;DHT22;51319;52.162;5.302;2024-03-02T06:29:15;6.60;99.00
43999;DHT22;51319;52.162;5.302;2024-03-02T06:31:42;6.60;98.80
43999;DHT22;51319;52.162;5.302;2024-03-02T06:34:09;6.60;98.60
43999;DHT22;51319;52.162;5.302;2024-03-02T06:36:36;6.70;98.50
43999;DHT22;51319;52.162;5.302;2024-03-02T06:39:05;6.70;98.50
43999;DHT22;51319;52.162;5.302;2024-03-02T06:41:32;6.70;98.40
43999;DHT22;51319;52.162;5.302;2024-03-02T06:43:59;6.80;98.30
43999;DHT22;51319;52.162;5.302;2024-03-02T06:46:28;6.80;98.20
43999;DHT22;51319;52.162;5.302;2024-03-02T06:48:55;6.80;98.00
43999;DHT22;51319;52.162;5.302;2024-03-02T06:51:22;6.90;97.80
43999;DHT22;51319;52.162;5.302;2024-03-02T06:53:50;6.90;97.50
43999;DHT22;51319;52.162;5.302;2024-03-02T06:56:17;6.90;97.30
43999;DHT22;51319;52.162;5.302;2024-03-02T06:58:44;7.00;97.20
43999;DHT22;51319;52.162;5.302;2024-03-02T07:01:11;6.90;97.00
43999;DHT22;51319;52.162;5.302;2024-03-02T07:03:38;7.00;97.00
43999;DHT22;51319;52.162;5.302;2024-03-02T07:06:06;7.10;96.70
43999;DHT22;51319;52.162;5.302;2024-03-02T07:08:33;7.10;96.50
43999;DHT22;51319;52.162;5.302;2024-03-02T07:11:00;7.10;96.50
43999;DHT22;51319;52.162;5.302;2024-03-02T07:13:27;7.20;96.30
43999;DHT22;51319;52.162;5.302;2024-03-02T07:15:54;7.30;95.80
43999;DHT22;51319;52.162;5.302;2024-03-02T07:18:50;7.40;95.60
43999;DHT22;51319;52.162;5.302;2024-03-02T07:21:19;7.70;95.40
43999;DHT22;51319;52.162;5.302;2024-03-02T07:23:46;7.80;94.50
43999;DHT22;51319;52.162;5.302;2024-03-02T07:26:13;7.70;94.10
43999;DHT22;51319;52.162;5.302;2024-03-02T07:28:45;7.80;93.90
43999;DHT22;51319;52.162;5.302;2024-03-02T07:31:12;7.80;93.70
43999;DHT22;51319;52.162;5.302;2024-03-02T07:33:39;7.80;93.60
43999;DHT22;51319;52.162;5.302;2024-03-02T07:36:06;7.80;93.40
43999;DHT22;51319;52.162;5.302;2024-03-02T07:38:34;7.90;93.30
43999;DHT22;51319;52.162;5.302;2024-03-02T07:41:02;7.90;93.10
43999;DHT22;51319;52.162;5.302;2024-03-02T07:43:31;7.90;93.00
43999;DHT22;51319;52.162;5.302;2024-03-02T07:45:59;8.00;92.90
43999;DHT22;51319;52.162;5.302;2024-03-02T07:48:26;8.20;92.80
43999;DHT22;51319;52.162;5.302;2024-03-02T07:50:53;8.20;92.30
43999;DHT22;51319;52.162;5.302;2024-03-02T07:53:20;8.10;92.00
43999;DHT22;51319;52.162;5.302;2024-03-02T07:55:47;8.10;91.90
43999;DHT22;51319;52.162;5.302;2024-03-02T07:58:14;8.10;92.00
43999;DHT22;51319;52.162;5.302;2024-03-02T08:00:41;8.10;92.00
43999;DHT22;51319;52.162;5.302;2024-03-02T08:03:08;8.10;92.00
43999;DHT22;51319;52.162;5.302;2024-03-02T08:05:38;8.10;92.00
43999;DHT22;51319;52.162;5.302;2024-03-02T08:08:05;8.10;92.10
43999;DHT22;51319;52.162;5.302;2024-03-02T08:10:32;8.30;92.20
43999;DHT22;51319;52.162;5.302;2024-03-02T08:13:00;8.30;91.80
43999;DHT22;51319;52.162;5.302;2024-03-02T08:15:27;8.40;91.80
43999;DHT22;51319;52.162;5.302;2024-03-02T08:17:54;8.40;91.80
43999;DHT22;51319;52.162;5.302;2024-03-02T08:20:21;8.50;91.80
43999;DHT22;51319;52.162;5.302;2024-03-02T08:22:48;8.70;91.70
43999;DHT22;51319;52.162;5.302;2024-03-02T08:25:15;8.80;91.50
43999;DHT22;51319;52.162;5.302;2024-03-02T08:27:43;9.20;91.30
43999;DHT22;51319;52.162;5.302;2024-03-02T08:30:11;9.90;90.90
43999;DHT22;51319;52.162;5.302;2024-03-02T08:32:38;10.70;88.90
43999;DHT22;51319;52.162;5.302;2024-03-02T08:35:06;11.40;85.60
43999;DHT22;51319;52.162;5.302;2024-03-02T08:37:33;12.60;83.90
43999;DHT22;51319;52.162;5.302;2024-03-02T08:40:00;14.30;79.40
43999;DHT22;51319;52.162;5.302;2024-03-02T08:42:28;16.00;73.90
43999;DHT22;51319;52.162;5.302;2024-03-02T08:44:55;17.50;68.50
43999;DHT22;51319;52.162;5.302;2024-03-02T08:47:31;18.20;61.70
43999;DHT22;51319;52.162;5.302;2024-03-02T08:49:59;18.90;56.50
43999;DHT22;51319;52.162;5.302;2024-03-02T08:52:27;19.20;55.70
43999;DHT22;51319;52.162;5.302;2024-03-02T08:54:54;19.90;54.10
43999;DHT22;51319;52.162;5.302;2024-03-02T08:59:49;20.50;50.50
43999;DHT22;51319;52.162;5.302;2024-03-02T09:02:16;20.70;49.60
43999;DHT22;51319;52.162;5.302;2024-03-02T09:04:43;21.20;50.00
43999;DHT22;51319;52.162;5.302;2024-03-02T09:07:10;21.20;47.70
43999;DHT22;51319;52.162;5.302;2024-03-02T09:09:37;21.40;48.00
43999;DHT22;51319;52.162;5.302;2024-03-02T09:12:06;21.80;47.40
43999;DHT22;51319;52.162;5.302;2024-03-02T09:14:35;22.70;47.20
43999;DHT22;51319;52.162;5.302;2024-03-02T09:17:03;23.10;45.10
43999;DHT22;51319;52.162;5.302;2024-03-02T09:19:30;23.30;43.60
43999;DHT22;51319;52.162;5.302;2024-03-02T09:21:57;23.70;45.00
43999;DHT22;51319;52.162;5.302;2024-03-02T09:24:25;24.30;43.60
43999;DHT22;51319;52.162;5.302;2024-03-02T09:26:52;24.80;42.20
43999;DHT22;51319;52.162;5.302;2024-03-02T09:29:19;24.70;41.90
43999;DHT22;51319;52.162;5.302;2024-03-02T09:31:47;24.90;40.70
43999;DHT22;51319;52.162;5.302;2024-03-02T09:34:16;24.90;40.30
43999;DHT22;51319;52.162;5.302;2024-03-02T09:36:44;24.60;40.40
43999;DHT22;51319;52.162;5.302;2024-03-02T09:39:11;24.80;40.60
43999;DHT22;51319;52.162;5.302;2024-03-02T09:41:38;24.60;40.50
43999;DHT22;51319;52.162;5.302;2024-03-02T09:44:05;23.40;40.70
43999;DHT22;51319;52.162;5.302;2024-03-02T09:46:33;21.00;42.70
43999;DHT22;51319;52.162;5.302;2024-03-02T09:49:00;19.20;45.80
43999;DHT22;51319;52.162;5.302;2024-03-02T09:51:28;17.70;47.90
43999;DHT22;51319;52.162;5.302;2024-03-02T09:53:55;16.50;49.70
43999;DHT22;51319;52.162;5.302;2024-03-02T09:56:39;15.60;51.60
43999;DHT22;51319;52.162;5.302;2024-03-02T09:59:06;16.70;51.90
43999;DHT22;51319;52.162;5.302;2024-03-02T10:01:36;18.80;48.70
43999;DHT22;51319;52.162;5.302;2024-03-02T10:04:06;20.50;46.30
43999;DHT22;51319;52.162;5.302;2024-03-02T10:06:34;22.40;44.50
43999;DHT22;51319;52.162;5.302;2024-03-02T10:09:01;23.40;41.70
43999;DHT22;51319;52.162;5.302;2024-03-02T10:11:30;24.00;41.10
43999;DHT22;51319;52.162;5.302;2024-03-02T10:16:31;25.10;38.40
43999;DHT22;51319;52.162;5.302;2024-03-02T10:18:58;25.10;37.20
43999;DHT22;51319;52.162;5.302;2024-03-02T10:21:40;25.40;38.10
43999;DHT22;51319;52.162;5.302;2024-03-02T10:24:07;26.10;37.30
43999;DHT22;51319;52.162;5.302;2024-03-02T10:26:35;26.60;36.80
43999;DHT22;51319;52.162;5.302;2024-03-02T10:29:02;26.50;35.20
43999;DHT22;51319;52.162;5.302;2024-03-02T10:31:29;26.80;34.90
43999;DHT22;51319;52.162;5.302;2024-03-02T10:34:00;26.60;35.00
43999;DHT22;51319;52.162;5.302;2024-03-02T10:36:28;26.50;33.80
43999;DHT22;51319;52.162;5.302;2024-03-02T10:38:58;26.50;35.20
43999;DHT22;51319;52.162;5.302;2024-03-02T10:41:33;26.80;34.10
43999;DHT22;51319;52.162;5.302;2024-03-02T10:44:09;27.10;33.50
43999;DHT22;51319;52.162;5.302;2024-03-02T10:46:37;26.90;34.30
43999;DHT22;51319;52.162;5.302;2024-03-02T10:49:05;27.40;34.50
43999;DHT22;51319;52.162;5.302;2024-03-02T10:51:35;27.00;34.30
43999;DHT22;51319;52.162;5.302;2024-03-02T10:54:04;26.80;35.20
43999;DHT22;51319;52.162;5.302;2024-03-02T10:56:34;27.20;33.70
43999;DHT22;51319;52.162;5.302;2024-03-02T11:01:58;27.60;33.10
43999;DHT22;51319;52.162;5.302;2024-03-02T11:04:32;27.50;33.10
43999;DHT22;51319;52.162;5.302;2024-03-02T11:07:02;27.70;33.00
43999;DHT22;51319;52.162;5.302;2024-03-02T11:09:35;28.00;33.30
43999;DHT22;51319;52.162;5.302;2024-03-02T11:12:06;27.90;32.50
43999;DHT22;51319;52.162;5.302;2024-03-02T11:14:40;28.30;32.80
43999;DHT22;51319;52.162;5.302;2024-03-02T11:17:10;28.90;32.30
43999;DHT22;51319;52.162;5.302;2024-03-02T11:19:41;29.00;31.60
43999;DHT22;51319;52.162;5.302;2024-03-02T11:22:09;28.80;31.90
43999;DHT22;51319;52.162;5.302;2024-03-02T11:24:37;28.90;31.40
43999;DHT22;51319;52.162;5.302;2024-03-02T11:27:06;28.90;31.60
43999;DHT22;51319;52.162;5.302;2024-03-02T11:32:14;29.20;30.40
43999;DHT22;51319;52.162;5.302;2024-03-02T11:34:42;29.20;30.80
43999;DHT22;51319;52.162;5.302;2024-03-02T11:37:20;29.50;31.00
43999;DHT22;51319;52.162;5.302;2024-03-02T11:39:49;29.90;30.80
43999;DHT22;51319;52.162;5.302;2024-03-02T11:42:20;30.40;31.00
43999;DHT22;51319;52.162;5.302;2024-03-02T11:44:48;30.40;30.10
43999;DHT22;51319;52.162;5.302;2024-03-02T11:47:16;30.20;30.20
43999;DHT22;51319;52.162;5.302;2024-03-02T11:49:46;30.10;30.20
43999;DHT22;51319;52.162;5.302;2024-03-02T11:52:15;29.70;29.80
43999;DHT22;51319;52.162;5.302;2024-03-02T11:54:45;29.60;31.60
43999;DHT22;51319;52.162;5.302;2024-03-02T11:57:17;30.10;30.40
43999;DHT22;51319;52.162;5.302;2024-03-02T11:59:45;30.40;30.00
43999;DHT22;51319;52.162;5.302;2024-03-02T12:02:17;30.60;30.00
43999;DHT22;51319;52.162;5.302;2024-03-02T12:04:49;30.60;29.40
43999;DHT22;51319;52.162;5.302;2024-03-02T12:20:53;30.70;29.40
43999;DHT22;51319;52.162;5.302;2024-03-02T12:23:25;30.80;29.00
43999;DHT22;51319;52.162;5.302;2024-03-02T12:25:52;30.50;28.70
43999;DHT22;51319;52.162;5.302;2024-03-02T12:28:20;29.90;29.00
43999;DHT22;51319;52.162;5.302;2024-03-02T12:33:52;30.10;29.50
43999;DHT22;51319;52.162;5.302;2024-03-02T12:36:53;29.90;29.30
43999;DHT22;51319;52.162;5.302;2024-03-02T12:39:27;29.60;29.50
43999;DHT22;51319;52.162;5.302;2024-03-02T12:41:54;29.00;29.60
43999;DHT22;51319;52.162;5.302;2024-03-02T12:47:07;27.00;30.00
43999;DHT22;51319;52.162;5.302;2024-03-02T12:49:35;26.30;30.40
43999;DHT22;51319;52.162;5.302;2024-03-02T12:52:02;26.10;31.30
43999;DHT22;51319;52.162;5.302;2024-03-02T12:54:42;25.70;31.20
43999;DHT22;51319;52.162;5.302;2024-03-02T12:57:09;25.10;31.30
43999;DHT22;51319;52.162;5.302;2024-03-02T12:59:36;24.20;31.80
43999;DHT22;51319;52.162;5.302;2024-03-02T13:02:04;23.30;33.20
43999;DHT22;51319;52.162;5.302;2024-03-02T13:04:31;23.20;34.30
43999;DHT22;51319;52.162;5.302;2024-03-02T13:06:58;23.00;34.60
43999;DHT22;51319;52.162;5.302;2024-03-02T13:12:11;22.10;35.50
43999;DHT22;51319;52.162;5.302;2024-03-02T13:14:38;21.80;36.00
43999;DHT22;51319;52.162;5.302;2024-03-02T13:17:10;21.70;36.40
43999;DHT22;51319;52.162;5.302;2024-03-02T13:19:59;21.90;37.20
43999;DHT22;51319;52.162;5.302;2024-03-02T13:27:57;21.10;38.30
43999;DHT22;51319;52.162;5.302;2024-03-02T13:30:26;21.10;38.00
43999;DHT22;51319;52.162;5.302;2024-03-02T13:54:41;19.70;41.40
43999;DHT22;51319;52.162;5.302;2024-03-02T13:57:11;19.40;41.80
43999;DHT22;51319;52.162;5.302;2024-03-02T13:59:40;19.30;42.50
43999;DHT22;51319;52.162;5.302;2024-03-02T14:02:08;19.50;42.00
43999;DHT22;51319;52.162;5.302;2024-03-02T14:04:36;19.10;43.00
43999;DHT22;51319;52.162;5.302;2024-03-02T14:07:04;19.00;42.90
43999;DHT22;51319;52.162;5.302;2024-03-02T14:17:58;18.20;44.20
43999;DHT22;51319;52.162;5.302;2024-03-02T14:20:25;17.80;44.60
43999;DHT22;51319;52.162;5.302;2024-03-02T14:22:52;17.40;45.30
43999;DHT22;51319;52.162;5.302;2024-03-02T14:25:19;17.10;46.30
43999;DHT22;51319;52.162;5.302;2024-03-02T14:27:46;16.90;46.40
43999;DHT22;51319;52.162;5.302;2024-03-02T14:30:33;16.70;46.80
43999;DHT22;51319;52.162;5.302;2024-03-02T14:33:01;16.40;47.30
43999;DHT22;51319;52.162;5.302;2024-03-02T14:38:32;16.00;48.50
43999;DHT22;51319;52.162;5.302;2024-03-02T14:40:59;16.00;48.70
43999;DHT22;51319;52.162;5.302;2024-03-02T14:43:26;16.10;48.90
43999;DHT22;51319;52.162;5.302;2024-03-02T14:45:53;16.00;48.90
43999;DHT22;51319;52.162;5.302;2024-03-02T14:48:20;15.90;49.00
43999;DHT22;51319;52.162;5.302;2024-03-02T14:50:47;15.90;49.10
43999;DHT22;51319;52.162;5.302;2024-03-02T14:53:15;15.90;49.60
43999;DHT22;51319;52.162;5.302;2024-03-02T14:55:42;16.10;49.50
43999;DHT22;51319;52.162;5.302;2024-03-02T14:58:09;16.10;48.80
43999;DHT22;51319;52.162;5.302;2024-03-02T15:00:36;16.30;48.70
43999;DHT22;51319;52.162;5.302;2024-03-02T15:03:04;16.60;48.40
43999;DHT22;51319;52.162;5.302;2024-03-02T15:05:33;16.70;47.90
43999;DHT22;51319;52.162;5.302;2024-03-02T15:08:00;16.50;47.80
43999;DHT22;51319;52.162;5.302;2024-03-02T15:10:29;16.30;48.00
43999;DHT22;51319;52.162;5.302;2024-03-02T15:26:35;15.20;50.40
43999;DHT22;51319;52.162;5.302;2024-03-02T15:29:02;15.10;50.40
43999;DHT22;51319;52.162;5.302;2024-03-02T15:31:29;14.90;50.60
43999;DHT22;51319;52.162;5.302;2024-03-02T15:33:56;14.70;51.00
43999;DHT22;51319;52.162;5.302;2024-03-02T15:36:25;14.70;51.60
43999;DHT22;51319;52.162;5.302;2024-03-02T15:38:52;14.60;52.00
43999;DHT22;51319;52.162;5.302;2024-03-02T15:41:23;14.60;52.50
43999;DHT22;51319;52.162;5.302;2024-03-02T15:43:54;14.50;52.60
43999;DHT22;51319;52.162;5.302;2024-03-02T15:46:21;14.50;53.00
43999;DHT22;51319;52.162;5.302;2024-03-02T15:48:50;14.60;53.00
43999;DHT22;51319;52.162;5.302;2024-03-02T15:51:17;14.50;53.00
43999;DHT22;51319;52.162;5.302;2024-03-02T15:53:44;14.50;53.20
43999;DHT22;51319;52.162;5.302;2024-03-02T15:56:11;14.40;53.40
43999;DHT22;51319;52.162;5.302;2024-03-02T15:58:38;14.40;53.80
43999;DHT22;51319;52.162;5.302;2024-03-02T16:01:07;14.40;53.90
43999;DHT22;51319;52.162;5.302;2024-03-02T16:06:12;14.40;53.80
43999;DHT22;51319;52.162;5.302;2024-03-02T16:08:39;14.20;53.90
43999;DHT22;51319;52.162;5.302;2024-03-02T16:11:08;14.10;54.20
43999;DHT22;51319;52.162;5.302;2024-03-02T16:13:35;14.00;54.80
43999;DHT22;51319;52.162;5.302;2024-03-02T16:16:05;14.00;55.20
43999;DHT22;51319;52.162;5.302;2024-03-02T16:18:38;13.90;55.50
43999;DHT22;51319;52.162;5.302;2024-03-02T16:21:08;13.80;55.80
43999;DHT22;51319;52.162;5.302;2024-03-02T16:28:53;13.60;57.00
43999;DHT22;51319;52.162;5.302;2024-03-02T16:31:20;13.60;57.50
43999;DHT22;51319;52.162;5.302;2024-03-02T16:33:47;13.60;57.80
43999;DHT22;51319;52.162;5.302;2024-03-02T16:36:14;13.60;58.10
43999;DHT22;51319;52.162;5.302;2024-03-02T16:38:41;13.60;58.30
43999;DHT22;51319;52.162;5.302;2024-03-02T16:41:10;13.60;58.40
43999;DHT22;51319;52.162;5.302;2024-03-02T16:43:37;13.60;58.30
43999;DHT22;51319;52.162;5.302;2024-03-02T16:46:08;13.60;58.70
43999;DHT22;51319;52.162;5.302;2024-03-02T16:48:45;13.60;58.80
43999;DHT22;51319;52.162;5.302;2024-03-02T16:51:15;13.50;59.10
43999;DHT22;51319;52.162;5.302;2024-03-02T16:53:42;13.50;59.50
43999;DHT22;51319;52.162;5.302;2024-03-02T16:56:08;13.40;59.80
43999;DHT22;51319;52.162;5.302;2024-03-02T16:58:37;13.40;60.10
43999;DHT22;51319;52.162;5.302;2024-03-02T17:01:04;13.30;60.70
43999;DHT22;51319;52.162;5.302;2024-03-02T17:03:31;13.20;61.10
43999;DHT22;51319;52.162;5.302;2024-03-02T17:05:58;13.10;61.50
43999;DHT22;51319;52.162;5.302;2024-03-02T17:08:25;13.00;61.90
43999;DHT22;51319;52.162;5.302;2024-03-02T17:10:52;12.90;62.40
43999;DHT22;51319;52.162;5.302;2024-03-02T17:13:20;12.80;63.00
43999;DHT22;51319;52.162;5.302;2024-03-02T17:15:47;12.70;63.40
43999;DHT22;51319;52.162;5.302;2024-03-02T17:18:15;12.70;63.70
43999;DHT22;51319;52.162;5.302;2024-03-02T17:20:44;12.60;64.10
43999;DHT22;51319;52.162;5.302;2024-03-02T17:23:11;12.50;64.40
43999;DHT22;51319;52.162;5.302;2024-03-02T17:25:38;12.50;64.90